Time;durP1;ratioP1;P1;durP2;ratioP2;P2;SDS_P1;SDS_P2;PMS_P1;PMS_P2;Temp;Humidity;BMP_temperature;BMP_pressure;BME280_temperature;BME280_humidity;BME280_pressure;Samples;Min_cycle;Max_cycle;Signal;HPM_P1;HPM_P2
2022/06/27 00:00:02;;;;;;;;;;;;;;;23.54;46.33;101629.16;4884082;29;19941;-84
2022/06/27 00:02:28;;;;;;;;;;;;;;;23.55;46.48;101620.41;4884447;29;19976;-84
2022/06/27 00:05:04;;;;;;;;;;;;;;;23.55;46.26;101623.03;4884503;29;19912;-85
2022/06/27 00:07:33;;;;;;;;;;;;;;;23.57;46.13;101621.25;4884886;29;19947;-84
2022/06/27 00:10:00;;;;;;;;;;;;;;;23.55;46.19;101630.91;4884281;29;19896;-84
2022/06/27 00:12:26;;;;;;;;;;;;;;;23.57;46.21;101635.22;4883419;29;19919;-84
2022/06/27 00:14:51;;;;;;;;;;;;;;;23.54;46.45;101630.06;4884733;29;19896;-84
2022/06/27 00:17:20;;;;;;;;;;;;;;;23.56;46.46;101616.88;4884704;29;19934;-85
2022/06/27 00:22:58;;;;;;;;;;;;;;;23.56;46.53;101615.13;4885305;29;19980;-84
2022/06/27 00:25:26;;;;;;;;;;;;;;;23.56;46.57;101609.88;4869105;29;19916;-84
2022/06/27 00:27:51;;;;;;;;;;;;;;;23.56;46.51;101616.88;4868860;29;19908;-84
2022/06/27 00:30:18;;;;;;;;;;;;;;;23.55;46.58;101621.25;4868548;29;19904;-84
2022/06/27 00:32:45;;;;;;;;;;;;;;;23.56;46.75;101622.13;4883834;29;19912;-84
2022/06/27 00:35:10;;;;;;;;;;;;;;;23.57;46.90;101631.75;4883884;29;19912;-84
2022/06/27 00:37:42;;;;;;;;;;;;;;;23.57;46.83;101629.97;4884044;29;19975;-84
2022/06/27 00:40:08;;;;;;;;;;;;;;;23.56;46.89;101636.16;4883472;29;19903;-84
2022/06/27 00:42:41;;;;;;;;;;;;;;;23.59;46.93;101638.69;4883269;29;19940;-84
2022/06/27 00:45:26;;;;;;;;;;;;;;;23.60;46.82;101644.81;4884088;29;19896;-83
2022/06/27 00:48:10;;;;;;;;;;;;;;;23.65;46.65;101648.22;4883817;29;19895;-84
2022/06/27 00:50:43;;;;;;;;;;;;;;;23.66;46.96;101651.69;4883222;29;19912;-84
2022/06/27 00:53:12;;;;;;;;;;;;;;;23.64;46.83;101650.88;4884584;29;19951;-84
2022/06/27 00:55:40;;;;;;;;;;;;;;;23.62;47.08;101653.53;4884301;29;19916;-84
2022/06/27 00:58:08;;;;;;;;;;;;;;;23.61;47.28;101654.44;4884658;29;19926;-84
2022/06/27 01:00:35;;;;;;;;;;;;;;;23.59;47.33;101650.97;4885169;29;19896;-83
2022/06/27 01:03:01;;;;;;;;;;;;;;;23.59;47.19;101651.84;4884856;29;19907;-84
2022/06/27 01:05:33;;;;;;;;;;;;;;;23.59;47.08;101658.84;4883762;29;19919;-84
2022/06/27 01:11:03;;;;;;;;;;;;;;;23.59;47.39;101661.47;4884360;29;19923;-84
2022/06/27 01:13:29;;;;;;;;;;;;;;;23.57;47.35;101661.50;4882872;29;19937;-84
2022/06/27 01:16:05;;;;;;;;;;;;;;;23.58;47.26;101657.09;4884034;29;19896;-84
2022/06/27 01:18:37;;;;;;;;;;;;;;;23.59;47.17;101656.22;4883316;29;19938;-84
2022/06/27 01:21:06;;;;;;;;;;;;;;;23.59;47.10;101658.84;4882723;29;19923;-84
2022/06/27 01:23:33;;;;;;;;;;;;;;;23.59;47.15;101656.22;4883262;29;19947;-84
2022/06/27 01:26:00;;;;;;;;;;;;;;;23.60;47.37;101655.31;4882780;29;19919;-84
2022/06/27 01:28:30;;;;;;;;;;;;;;;23.59;47.37;101648.34;4883828;29;19945;-85
2022/06/27 01:30:56;;;;;;;;;;;;;;;23.58;47.21;101643.97;4882933;29;19918;-84
2022/06/27 01:33:24;;;;;;;;;;;;;;;23.58;47.30;101636.97;4882940;29;19916;-84
2022/06/27 01:36:41;;;;;;;;;;;;;;;23.58;47.26;101641.34;4882523;29;19896;-84
2022/06/27 01:38:36;;;;;;;;;;;;;;;23.57;47.54;101635.22;4883459;29;19912;-83
2022/06/27 01:41:06;;;;;;;;;;;;;;;23.57;47.31;101639.63;4883471;29;19945;-84
2022/06/27 01:43:33;;;;;;;;;;;;;;;23.57;47.38;101635.22;4867214;29;19958;-84
2022/06/27 01:46:01;;;;;;;;;;;;;;;23.56;47.51;101636.16;4881861;29;19912;-84
2022/06/27 01:48:29;;;;;;;;;;;;;;;23.57;47.37;101629.97;4866805;29;19953;-84
2022/06/27 01:50:58;;;;;;;;;;;;;;;23.58;47.63;101628.22;4866948;29;19916;-84
2022/06/27 01:53:27;;;;;;;;;;;;;;;23.57;47.37;101632.59;4882547;29;19896;-84
2022/06/27 01:55:56;;;;;;;;;;;;;;;23.58;47.38;101634.34;4881648;29;19912;-85
2022/06/27 01:58:23;;;;;;;;;;;;;;;23.59;47.67;101638.69;4881645;29;19924;-84
2022/06/27 02:00:55;;;;;;;;;;;;;;;23.58;47.55;101633.47;4881840;29;19915;-84
2022/06/27 02:03:23;;;;;;;;;;;;;;;23.57;47.54;101627.34;4867615;29;19923;-85
2022/06/27 02:05:53;;;;;;;;;;;;;;;23.56;47.48;101628.28;4882126;29;19919;-85
2022/06/27 02:08:41;;;;;;;;;;;;;;;23.57;47.53;101621.25;4864447;29;19927;-85
2022/06/27 02:11:14;;;;;;;;;;;;;;;23.57;47.61;101626.50;4851248;29;19913;-85
2022/06/27 02:13:40;;;;;;;;;;;;;;;23.56;47.60;101632.63;4849307;29;19976;-84
2022/06/27 02:16:08;;;;;;;;;;;;;;;23.55;47.90;101628.28;4849119;29;19904;-85
2022/06/27 02:18:40;;;;;;;;;;;;;;;23.54;47.58;101629.16;4865159;29;19921;-85
2022/06/27 02:21:10;;;;;;;;;;;;;;;23.53;47.64;101625.69;4850630;29;19932;-85
2022/06/27 02:23:38;;;;;;;;;;;;;;;23.52;47.84;101612.59;4865117;29;19953;-85
2022/06/27 02:26:08;;;;;;;;;;;;;;;23.52;47.50;101609.97;4864477;29;19919;-84
2022/06/27 02:28:58;;;;;;;;;;;;;;;23.53;47.35;101609.94;4848676;29;19928;-84
2022/06/27 02:31:24;;;;;;;;;;;;;;;23.54;47.44;101602.91;4847461;29;19919;-85
2022/06/27 02:33:57;;;;;;;;;;;;;;;23.54;47.78;101595.03;4847821;29;19963;-85
2022/06/27 02:36:33;;;;;;;;;;;;;;;23.55;47.51;101595.00;4847428;29;19916;-84
2022/06/27 02:39:11;;;;;;;;;;;;;;;23.54;47.44;101601.16;4862111;29;19919;-84
2022/06/27 02:41:43;;;;;;;;;;;;;;;23.55;47.48;101597.63;4847228;29;19919;-85
2022/06/27 02:44:16;;;;;;;;;;;;;;;23.55;47.39;101604.66;4847893;29;19955;-85
2022/06/27 02:46:42;;;;;;;;;;;;;;;23.55;47.40;101604.66;4877989;29;19920;-85
2022/06/27 02:49:08;;;;;;;;;;;;;;;23.54;47.38;101611.66;4880990;29;19920;-85
2022/06/27 02:51:46;;;;;;;;;;;;;;;23.55;47.68;101613.38;4880930;29;20007;-85
2022/06/27 02:54:16;;;;;;;;;;;;;;;23.53;47.66;101609.94;4881024;29;19935;-85
2022/06/27 02:56:47;;;;;;;;;;;;;;;23.54;47.40;101601.16;4882500;29;19916;-85
2022/06/27 02:59:23;;;;;;;;;;;;;;;23.53;47.37;101596.78;4884049;29;19920;-84
2022/06/27 03:01:49;;;;;;;;;;;;;;;23.51;47.68;101590.69;4884210;29;19987;-85
2022/06/27 03:04:18;;;;;;;;;;;;;;;23.53;47.48;101596.78;4899575;29;19915;-85
2022/06/27 03:06:50;;;;;;;;;;;;;;;23.52;47.30;101595.06;4867952;29;19932;-84
2022/06/27 03:09:26;;;;;;;;;;;;;;;23.53;47.43;101591.53;4900156;29;20346;-85
2022/06/27 03:11:54;;;;;;;;;;;;;;;23.53;47.37;101580.16;4883772;29;19920;-84
2022/06/27 03:14:20;;;;;;;;;;;;;;;23.52;47.59;101576.69;4900302;29;19902;-84
2022/06/27 03:16:48;;;;;;;;;;;;;;;23.53;47.38;101572.28;4884298;29;19911;-84
2022/06/27 03:19:14;;;;;;;;;;;;;;;23.52;47.68;101560.06;4883791;29;19918;-84
2022/06/27 03:21:44;;;;;;;;;;;;;;;23.52;47.25;101553.03;4884293;29;19912;-84
2022/06/27 03:24:12;;;;;;;;;;;;;;;23.52;47.29;101557.44;4898516;29;19925;-85
2022/06/27 03:26:39;;;;;;;;;;;;;;;23.52;47.57;101555.66;4900375;29;19895;-85
2022/06/27 03:29:07;;;;;;;;;;;;;;;23.51;47.50;101564.44;4884695;29;19923;-84
2022/06/27 03:31:48;;;;;;;;;;;;;;;23.52;47.34;101567.94;4901432;29;19915;-84
2022/06/27 03:34:14;;;;;;;;;;;;;;;23.51;47.44;101566.19;4885764;29;19943;-84
2022/06/27 03:36:43;;;;;;;;;;;;;;;23.49;47.48;101560.97;4883819;29;19912;-85
2022/06/27 03:39:12;;;;;;;;;;;;;;;23.49;47.34;101565.38;4885164;29;19923;-84
2022/06/27 03:41:39;;;;;;;;;;;;;;;23.49;47.39;101555.72;4900957;29;19936;-84
2022/06/27 03:44:08;;;;;;;;;;;;;;;23.49;47.60;101560.97;4884001;29;20422;-85
2022/06/27 03:46:40;;;;;;;;;;;;;;;23.50;47.36;101567.97;4884409;29;19896;-84
2022/06/27 03:51:50;;;;;;;;;;;;;;;23.49;47.58;101576.75;4901052;29;19936;-84
2022/06/27 03:54:20;;;;;;;;;;;;;;;23.49;47.65;101578.50;4902453;29;19912;-84
2022/06/27 03:56:47;;;;;;;;;;;;;;;23.49;47.52;101576.75;4872708;29;19906;-84
2022/06/27 03:59:20;;;;;;;;;;;;;;;23.48;47.54;101582.06;4904144;29;19926;-84
2022/06/27 04:01:50;;;;;;;;;;;;;;;23.48;47.45;101567.16;4886945;29;19915;-84
2022/06/27 04:04:17;;;;;;;;;;;;;;;23.49;47.34;101574.09;4903718;29;19916;-84
2022/06/27 04:06:44;;;;;;;;;;;;;;;23.49;47.62;101574.09;4872268;29;19920;-84
2022/06/27 04:09:13;;;;;;;;;;;;;;;23.49;47.66;101568.00;4871436;29;19923;-85
2022/06/27 04:11:42;;;;;;;;;;;;;;;23.47;47.46;101562.78;4871771;29;19916;-85
2022/06/27 04:14:09;;;;;;;;;;;;;;;23.48;47.69;101564.53;4871718;29;19916;-80
2022/06/27 04:16:34;;;;;;;;;;;;;;;23.48;47.39;101559.25;4870249;29;20002;-80
2022/06/27 04:18:59;;;;;;;;;;;;;;;23.48;47.54;101546.13;4870300;29;19921;-80
2022/06/27 04:21:25;;;;;;;;;;;;;;;23.49;47.60;101541.72;4869955;29;19912;-80
2022/06/27 04:23:50;;;;;;;;;;;;;;;23.50;47.36;101536.44;4869079;29;19916;-80
2022/06/27 04:26:15;;;;;;;;;;;;;;;23.52;47.58;101539.91;4869087;29;19912;-80
2022/06/27 04:28:43;;;;;;;;;;;;;;;23.54;47.30;101551.25;4878500;29;19919;-81
2022/06/27 04:31:10;;;;;;;;;;;;;;;23.53;47.30;101560.00;4880611;29;20344;-80
2022/06/27 04:33:35;;;;;;;;;;;;;;;23.57;47.35;101556.41;4883920;29;19912;-81
2022/06/27 04:36:01;;;;;;;;;;;;;;;23.59;47.21;101559.03;4870146;29;19927;-81
2022/06/27 04:41:02;;;;;;;;;;;;;;;23.59;47.46;101559.88;4992413;23;19934;-78
2022/06/27 04:43:29;;;;;;;;;;;;;;;23.59;47.40;101554.63;4899327;29;19979;-85
2022/06/27 04:45:57;;;;;;;;;;;;;;;23.58;47.38;101547.66;4900803;29;19919;-85
2022/06/27 04:48:32;;;;;;;;;;;;;;;23.58;47.34;101547.66;4903139;29;19911;-83
2022/06/27 04:51:14;;;;;;;;;;;;;;;23.45;47.52;101533.03;4883289;29;19971;-83
2022/06/27 04:53:48;;;;;;;;;;;;;;;23.40;47.87;101530.53;4868208;29;19951;-84
2022/06/27 05:05:04;;;;;;;;;;;;;;;23.44;47.83;101486.69;4882471;29;19919;-84
2022/06/27 05:21:55;;;;;;;;;;;;;;;23.45;47.54;101524.31;4902791;29;19926;-83
2022/06/27 05:27:26;;;;;;;;;;;;;;;23.29;47.58;101545.69;4902056;29;19971;-85
2022/06/27 05:29:53;;;;;;;;;;;;;;;23.26;47.63;101548.38;4902429;29;19911;-85
2022/06/27 05:39:01;;;;;;;;;;;;;;;23.17;47.78;101554.69;4864353;29;19993;-86
2022/06/27 05:42:06;;;;;;;;;;;;;;;23.09;47.93;101566.25;4863254;29;19916;-86
2022/06/27 06:01:15;;;;;;;;;;;;;;;23.23;46.63;101577.31;5301212;23;19907;-85
2022/06/27 06:03:47;;;;;;;;;;;;;;;23.32;46.61;101574.50;4903257;29;19955;-85
2022/06/27 06:06:15;;;;;;;;;;;;;;;23.38;46.36;101579.59;4870698;29;19899;-85
2022/06/27 06:08:43;;;;;;;;;;;;;;;23.41;46.52;101582.19;4872394;29;19900;-85
2022/06/27 06:11:13;;;;;;;;;;;;;;;23.44;46.34;101591.75;4871968;29;19916;-84
2022/06/27 06:14:00;;;;;;;;;;;;;;;23.47;46.32;101615.31;4883530;29;19954;-84
2022/06/27 06:16:29;;;;;;;;;;;;;;;23.49;46.29;101624.03;4881598;29;19916;-86
2022/06/27 06:19:00;;;;;;;;;;;;;;;23.51;46.16;101629.25;4882029;29;19912;-86
2022/06/27 06:21:29;;;;;;;;;;;;;;;23.53;46.16;101628.31;4882853;29;20006;-85
2022/06/27 06:23:57;;;;;;;;;;;;;;;23.53;46.57;101617.81;4883077;29;19915;-85
2022/06/27 06:26:32;;;;;;;;;;;;;;;23.53;46.51;101609.94;4881497;29;19912;-85
2022/06/27 06:29:15;;;;;;;;;;;;;;;23.54;46.17;101601.16;4881838;29;19911;-85
2022/06/27 06:31:45;;;;;;;;;;;;;;;23.55;46.13;101610.75;4881115;29;19952;-85
2022/06/27 06:34:17;;;;;;;;;;;;;;;23.57;46.41;101616.84;4881334;29;19912;-84
2022/06/27 06:36:45;;;;;;;;;;;;;;;23.58;46.20;101618.59;4881112;29;19912;-85
2022/06/27 06:39:14;;;;;;;;;;;;;;;23.59;46.36;101607.16;4881457;29;19959;-85
2022/06/27 06:41:44;;;;;;;;;;;;;;;23.60;46.37;101616.78;4865895;29;19923;-85
2022/06/27 06:44:28;;;;;;;;;;;;;;;23.61;46.11;101617.66;4867244;29;19899;-84
2022/06/27 06:46:56;;;;;;;;;;;;;;;23.61;46.17;101629.03;4884540;29;19912;-84
2022/06/27 06:49:23;;;;;;;;;;;;;;;23.62;46.21;101635.13;4880864;29;19975;-85
2022/06/27 06:51:51;;;;;;;;;;;;;;;23.65;46.24;101644.69;4881509;29;19980;-85
2022/06/27 06:54:41;;;;;;;;;;;;;;;23.64;46.21;101650.88;4881187;29;19912;-85
2022/06/27 06:57:10;;;;;;;;;;;;;;;23.64;46.25;101650.88;4882534;29;19983;-85
2022/06/27 06:59:40;;;;;;;;;;;;;;;23.64;46.36;101643.00;4865886;29;19912;-84
2022/06/27 07:02:07;;;;;;;;;;;;;;;23.63;46.49;101647.38;4862564;29;19926;-85
2022/06/27 07:08:10;;;;;;;;;;;;;;;;;;;;;
2022/06/27 07:10:36;;;;;;;;;;;;;;;23.62;46.44;101593.94;4862679;29;19948;-85
2022/06/27 07:13:23;;;;;;;;;;;;;;;23.62;46.32;101582.56;4863473;29;19937;-85
2022/06/27 07:16:01;;;;;;;;;;;;;;;23.62;46.61;101575.56;4863528;29;19912;-85
2022/06/27 07:18:43;;;;;;;;;;;;;;;23.62;46.35;101582.56;4862884;29;19913;-85
2022/06/27 07:21:12;;;;;;;;;;;;;;;23.63;46.53;101571.19;4862731;29;19920;-85
2022/06/27 07:23:40;;;;;;;;;;;;;;;23.62;46.36;101558.94;4864178;29;19912;-85
2022/06/27 07:26:08;;;;;;;;;;;;;;;23.62;46.26;101553.69;4863248;29;19922;-85
2022/06/27 07:28:36;;;;;;;;;;;;;;;23.62;46.46;101557.16;4862981;29;19948;-85
2022/06/27 07:31:08;;;;;;;;;;;;;;;23.63;46.29;101563.31;4866038;29;19923;-85
2022/06/27 07:33:58;;;;;;;;;;;;;;;23.64;46.29;101577.28;4851815;29;19940;-84
2022/06/27 07:36:50;;;;;;;;;;;;;;;23.63;46.35;101573.81;4864012;29;19912;-85
2022/06/27 07:39:18;;;;;;;;;;;;;;;23.66;46.33;101580.75;4867507;29;19913;-85
2022/06/27 07:41:46;;;;;;;;;;;;;;;23.66;46.60;101586.88;4865785;29;19916;-85
2022/06/27 07:44:12;;;;;;;;;;;;;;;23.65;46.21;101579.91;4866541;29;19920;-84
2022/06/27 07:46:46;;;;;;;;;;;;;;;23.66;46.28;101589.50;4851055;29;19907;-85
2022/06/27 07:49:32;;;;;;;;;;;;;;;23.66;46.57;101591.28;4866324;29;19923;-85
2022/06/27 07:51:59;;;;;;;;;;;;;;;23.66;46.26;101586.88;4866576;29;19920;-84
2022/06/27 07:54:33;;;;;;;;;;;;;;;23.67;46.49;101598.22;4851332;29;19916;-85
2022/06/27 07:57:08;;;;;;;;;;;;;;;23.67;46.54;101609.63;4867054;29;19963;-85
2022/06/27 07:59:44;;;;;;;;;;;;;;;23.67;46.64;101614.00;4868724;29;19920;-85
2022/06/27 08:02:11;;;;;;;;;;;;;;;23.67;46.28;101614.00;4851139;29;19931;-85
2022/06/27 08:04:41;;;;;;;;;;;;;;;23.66;46.37;101607.03;4866852;29;20019;-85
2022/06/27 08:07:11;;;;;;;;;;;;;;;23.67;46.58;101611.38;4880741;29;19969;-85
2022/06/27 08:09:42;;;;;;;;;;;;;;;23.68;46.31;101615.75;4865767;29;19912;-84
2022/06/27 08:12:10;;;;;;;;;;;;;;;23.67;46.40;101611.38;4866899;29;20053;-84
2022/06/27 08:14:41;;;;;;;;;;;;;;;23.68;46.38;101621.00;4865490;29;19916;-85
2022/06/27 08:20:13;;;;;;;;;;;;;;;23.69;46.71;101630.59;4866728;29;19946;-84
2022/06/27 08:22:53;;;;;;;;;;;;;;;23.69;46.42;101628.88;4866777;29;19916;-85
2022/06/27 08:25:21;;;;;;;;;;;;;;;23.70;46.70;101627.94;4864920;29;19912;-85
2022/06/27 08:27:52;;;;;;;;;;;;;;;23.71;46.34;101628.81;4865666;29;19912;-85
2022/06/27 08:30:25;;;;;;;;;;;;;;;23.70;46.29;101625.31;4865940;29;19917;-85
2022/06/27 08:32:56;;;;;;;;;;;;;;;23.71;46.40;101613.03;4866092;29;19937;-85
2022/06/27 08:35:25;;;;;;;;;;;;;;;23.70;46.44;101609.56;4865622;29;19912;-85
2022/06/27 08:38:05;;;;;;;;;;;;;;;23.70;46.35;101617.44;4868161;29;19911;-85
2022/06/27 08:40:32;;;;;;;;;;;;;;;23.70;46.30;101609.56;4870213;29;19904;-85
2022/06/27 08:43:12;;;;;;;;;;;;;;;23.71;46.27;101611.25;4868152;29;19917;-85
2022/06/27 08:45:40;;;;;;;;;;;;;;;23.73;46.66;101609.47;4866627;29;19896;-85
2022/06/27 08:48:11;;;;;;;;;;;;;;;23.75;46.52;101619.94;4866610;29;19923;-86
2022/06/27 08:53:41;;;;;;;;;;;;;;;23.75;46.57;101639.25;4867259;29;19946;-85
2022/06/27 08:56:27;;;;;;;;;;;;;;;23.75;46.31;101648.88;4865864;29;19912;-85
2022/06/27 08:59:18;;;;;;;;;;;;;;;23.76;46.66;101655.91;4866053;29;20013;-85
2022/06/27 09:02:05;;;;;;;;;;;;;;;23.76;46.40;101661.16;4881673;29;19961;-85
2022/06/27 09:04:55;;;;;;;;;;;;;;;23.77;46.43;101668.13;4852533;29;19917;-85
2022/06/27 09:07:44;;;;;;;;;;;;;;;23.77;46.36;101673.38;4866910;29;19952;-85
2022/06/27 09:10:23;;;;;;;;;;;;;;;23.76;46.33;101669.03;4866455;29;19945;-85
2022/06/27 09:13:06;;;;;;;;;;;;;;;23.76;46.70;101669.91;4866060;29;19903;-85
2022/06/27 09:15:50;;;;;;;;;;;;;;;23.75;46.20;101662.88;4865766;29;19908;-85
2022/06/27 09:18:51;;;;;;;;;;;;;;;23.75;46.65;101665.53;4867006;29;19920;-85
2022/06/27 09:21:36;;;;;;;;;;;;;;;23.75;46.31;101665.53;4866840;29;19984;-85
2022/06/27 09:24:08;;;;;;;;;;;;;;;23.74;46.49;101669.03;4866421;29;19968;-85
2022/06/27 09:26:35;;;;;;;;;;;;;;;23.75;46.27;101664.63;4850219;29;19900;-84
2022/06/27 09:29:14;;;;;;;;;;;;;;;23.75;46.36;101667.25;4865539;29;19916;-85
2022/06/27 09:31:46;;;;;;;;;;;;;;;23.75;46.31;101662.00;4865498;29;19912;-85
2022/06/27 09:39:31;;;;;;;;;;;;;;;23.74;46.23;101647.16;5630188;24;19963;-84
2022/06/27 09:42:03;;;;;;;;;;;;;;;23.73;46.43;101650.66;4882946;29;19924;-85
2022/06/27 09:44:38;;;;;;;;;;;;;;;23.74;46.54;101652.41;4867391;29;19969;-84
2022/06/27 09:47:18;;;;;;;;;;;;;;;23.74;46.32;101650.63;4882968;29;20371;-85
2022/06/27 09:49:47;;;;;;;;;;;;;;;23.74;46.27;101649.78;4867924;29;19912;-84
2022/06/27 09:52:34;;;;;;;;;;;;;;;23.75;46.52;101662.88;4868460;29;19908;-85
2022/06/27 09:55:25;;;;;;;;;;;;;;;23.76;46.24;101669.03;4867495;29;19980;-85
2022/06/27 09:58:29;;;;;;;;;;;;;;;23.75;46.34;101676.03;4869121;29;19919;-85
2022/06/27 10:01:15;;;;;;;;;;;;;;;23.75;46.22;101668.16;4885100;29;19974;-85
2022/06/27 10:03:46;;;;;;;;;;;;;;;23.74;46.45;101669.03;4885094;29;19911;-85
2022/06/27 10:06:20;;;;;;;;;;;;;;;23.74;46.13;101668.16;4868476;29;19988;-84
2022/06/27 10:09:08;;;;;;;;;;;;;;;23.74;46.31;101670.81;4883992;29;19974;-85
2022/06/27 10:11:41;;;;;;;;;;;;;;;23.74;46.25;101662.91;4869392;29;19927;-85
2022/06/27 10:14:40;;;;;;;;;;;;;;;23.76;46.48;101671.66;4883379;29;19932;-85
2022/06/27 10:17:25;;;;;;;;;;;;;;;23.77;46.50;101671.59;4884084;29;19927;-85
2022/06/27 10:23:18;;;;;;;;;;;;;;;23.79;46.29;101672.44;4885183;29;19926;-86
2022/06/27 10:26:02;;;;;;;;;;;;;;;23.80;46.59;101663.66;4869039;29;19916;-86
2022/06/27 10:28:38;;;;;;;;;;;;;;;23.81;46.37;101664.53;4869213;29;19928;-85
2022/06/27 10:31:15;;;;;;;;;;;;;;;23.81;46.32;101672.41;4868194;29;19912;-85
2022/06/27 10:33:47;;;;;;;;;;;;;;;23.82;46.59;101668.88;4884403;29;19937;-85
2022/06/27 10:36:39;;;;;;;;;;;;;;;23.81;46.34;101665.38;4884309;29;19924;-85
2022/06/27 10:39:21;;;;;;;;;;;;;;;23.83;46.37;101675.03;4884502;29;19919;-84
2022/06/27 10:42:13;;;;;;;;;;;;;;;23.84;46.31;101674.09;4873012;29;19903;-85
2022/06/27 10:44:51;;;;;;;;;;;;;;;23.85;46.65;101662.72;4867367;29;19955;-84
2022/06/27 10:47:35;;;;;;;;;;;;;;;23.83;46.59;101667.13;4883167;29;19915;-84
2022/06/27 10:56:33;;;;;;;;;;;;;;;23.82;46.27;101666.25;4882966;29;19919;-85
2022/06/27 10:59:19;;;;;;;;;;;;;;;23.81;46.56;101670.66;4864995;29;19938;-85
2022/06/27 11:02:05;;;;;;;;;;;;;;;23.81;46.29;101665.38;4875989;29;19976;-85
2022/06/27 11:04:40;;;;;;;;;;;;;;;23.80;46.42;101674.19;4866729;29;19896;-84
2022/06/27 11:07:10;;;;;;;;;;;;;;;23.80;46.32;101665.41;4883295;29;19912;-85
2022/06/27 11:09:55;;;;;;;;;;;;;;;23.78;46.39;101660.22;4882707;29;19904;-85
2022/06/27 11:12:42;;;;;;;;;;;;;;;23.78;46.70;101659.34;4881644;29;19953;-85
2022/06/27 11:15:12;;;;;;;;;;;;;;;23.77;46.42;101657.59;4856577;29;19922;-84
2022/06/27 11:17:48;;;;;;;;;;;;;;;23.76;46.40;101655.91;4848377;29;19915;-85
2022/06/27 11:20:44;;;;;;;;;;;;;;;23.76;46.23;101664.63;4845615;29;19928;-84
2022/06/27 11:23:16;;;;;;;;;;;;;;;23.76;46.17;101663.78;4828405;29;20059;-85
2022/06/27 11:25:56;;;;;;;;;;;;;;;23.75;46.43;101662.88;4829368;29;19920;-85
2022/06/27 11:34:12;;;;;;;;;;;;;;;23.76;46.41;101662.00;4831255;29;19997;-84
2022/06/27 11:36:46;;;;;;;;;;;;;;;23.76;46.45;101663.78;4843020;29;19924;-85
2022/06/27 11:39:14;;;;;;;;;;;;;;;23.76;46.17;101653.28;4829166;29;19912;-84
2022/06/27 11:41:57;;;;;;;;;;;;;;;23.77;46.04;101642.69;4843030;29;19996;-85
2022/06/27 11:44:33;;;;;;;;;;;;;;;23.78;46.15;101643.59;4814144;29;20012;-85
2022/06/27 11:47:03;;;;;;;;;;;;;;;23.80;46.07;101654.91;4830204;29;19921;-85
2022/06/27 11:49:33;;;;;;;;;;;;;;;23.81;46.35;101656.66;4844724;29;19958;-85
2022/06/27 11:52:05;;;;;;;;;;;;;;;23.80;46.31;101647.00;4871191;29;19933;-85
2022/06/27 11:54:53;;;;;;;;;;;;;;;23.80;46.41;101652.28;4866036;29;19920;-85
2022/06/27 11:57:29;;;;;;;;;;;;;;;23.77;46.26;101655.84;4879881;29;19922;-85
2022/06/27 12:00:07;;;;;;;;;;;;;;;23.78;46.33;101656.72;4865272;29;19912;-85
2022/06/27 12:02:40;;;;;;;;;;;;;;;23.78;46.32;101659.34;4880344;29;19916;-84
2022/06/27 12:05:06;;;;;;;;;;;;;;;23.78;46.27;101656.72;4865634;29;19982;-84
2022/06/27 12:07:51;;;;;;;;;;;;;;;23.79;45.99;101658.44;4880820;29;19912;-84
2022/06/27 12:10:34;;;;;;;;;;;;;;;23.78;46.22;101657.59;4882019;29;19916;-84
2022/06/27 12:13:05;;;;;;;;;;;;;;;23.78;45.93;101651.47;4880026;29;19975;-84
2022/06/27 12:15:50;;;;;;;;;;;;;;;23.77;46.05;101645.31;4851680;29;19916;-84
2022/06/27 12:18:34;;;;;;;;;;;;;;;23.78;46.00;101641.81;4865692;29;19912;-84
2022/06/27 12:21:01;;;;;;;;;;;;;;;23.78;45.89;101639.19;4868664;29;19919;-84
2022/06/27 12:24:05;;;;;;;;;;;;;;;23.80;46.03;101639.13;4879396;29;19919;-84
2022/06/27 12:26:38;;;;;;;;;;;;;;;23.79;46.14;101651.41;4868461;29;19896;-84
2022/06/27 12:29:25;;;;;;;;;;;;;;;23.80;45.97;101652.28;4853876;29;19900;-85
2022/06/27 12:32:01;;;;;;;;;;;;;;;23.80;45.91;101649.66;4869198;29;19955;-85
2022/06/27 12:34:35;;;;;;;;;;;;;;;23.80;46.20;101652.28;4866638;29;19921;-84
2022/06/27 12:37:16;;;;;;;;;;;;;;;23.80;46.17;101657.53;4868012;29;19951;-85
2022/06/27 12:45:52;;;;;;;;;;;;;;;23.79;45.74;101671.59;4848283;29;19920;-85
2022/06/27 12:48:17;;;;;;;;;;;;;;;23.78;45.72;101670.72;4846330;29;19913;-86
2022/06/27 12:50:52;;;;;;;;;;;;;;;23.77;45.82;101682.13;4845797;29;19913;-85
2022/06/27 12:56:26;;;;;;;;;;;;;;;23.77;46.16;101704.91;4846218;29;19919;-85
2022/06/27 12:58:54;;;;;;;;;;;;;;;23.76;46.07;101704.06;4843087;29;19897;-85
2022/06/27 13:01:20;;;;;;;;;;;;;;;23.76;46.17;101708.47;4830702;29;19925;-85
2022/06/27 13:03:47;;;;;;;;;;;;;;;23.74;46.15;101708.44;4845836;29;19913;-85
2022/06/27 13:06:14;;;;;;;;;;;;;;;23.75;46.21;101709.31;4843868;29;19924;-85
2022/06/27 13:11:50;;;;;;;;;;;;;;;23.74;46.59;101750.50;4846429;29;19919;-86
2022/06/27 13:14:51;;;;;;;;;;;;;;;23.75;46.30;101780.25;4845092;29;19903;-86
2022/06/27 13:17:29;;;;;;;;;;;;;;;23.72;46.81;101819.75;4830065;29;19919;-86
2022/06/27 13:20:02;;;;;;;;;;;;;;;23.73;46.58;101874.03;4828217;29;19913;-86
2022/06/27 13:22:55;;;;;;;;;;;;;;;23.74;46.64;101896.81;4845568;29;19972;-86
2022/06/27 14:48:29;;;;;;;;;;;;;;;23.50;47.63;101871.84;4898887;29;20355;-82
2022/06/27 14:59:56;;;;;;;;;;;;;;;23.51;47.85;101877.06;4902741;29;19940;-86
2022/06/27 15:02:22;;;;;;;;;;;;;;;23.50;48.04;101856.09;4881976;29;19899;-85
2022/06/27 15:05:05;;;;;;;;;;;;;;;23.50;47.97;101850.84;4845438;29;19923;-85
2022/06/27 15:13:40;;;;;;;;;;;;;;;23.58;47.70;101836.66;4901067;24;19928;-85
2022/06/27 15:41:18;;;;;;;;;;;;;;;23.51;47.78;101824.53;4902480;29;19944;-84
2022/06/27 15:44:01;;;;;;;;;;;;;;;23.52;47.84;101831.53;4869767;29;19920;-84
2022/06/27 15:49:58;;;;;;;;;;;;;;;23.55;47.67;101857.72;4878961;29;20053;-83
2022/06/27 15:55:40;;;;;;;;;;;;;;;23.57;48.30;101882.22;4884456;29;19922;-83
2022/06/27 16:01:12;;;;;;;;;;;;;;;23.61;48.26;101888.28;4885180;29;19958;-83
2022/06/27 16:03:44;;;;;;;;;;;;;;;23.62;48.37;101893.50;4885211;29;19997;-82
2022/06/27 16:06:24;;;;;;;;;;;;;;;23.65;48.38;101891.69;4884087;29;20603;-83
2022/06/27 16:11:57;;;;;;;;;;;;;;;23.69;48.45;101896.00;4885794;29;19903;-84
2022/06/27 16:14:27;;;;;;;;;;;;;;;23.70;48.33;101895.13;4885654;29;20013;-83
2022/06/27 16:17:00;;;;;;;;;;;;;;;23.68;48.46;101892.53;4884516;29;19916;-83
2022/06/27 16:24:58;;;;;;;;;;;;;;;23.71;48.55;101895.09;5083539;23;19908;-83
2022/06/27 16:27:24;;;;;;;;;;;;;;;23.71;48.55;101902.97;4886701;29;19963;-78
2022/06/27 16:29:49;;;;;;;;;;;;;;;23.67;48.79;101900.44;4861079;29;19955;-77
2022/06/27 16:32:16;;;;;;;;;;;;;;;23.57;48.70;101899.75;4860318;29;19943;-80
2022/06/27 16:34:41;;;;;;;;;;;;;;;23.53;48.21;101896.28;4876769;29;19912;-78
2022/06/27 16:37:06;;;;;;;;;;;;;;;23.41;48.14;101897.38;4876881;29;19939;-79
2022/06/27 16:39:32;;;;;;;;;;;;;;;23.38;48.05;101894.78;4876250;29;19918;-79
2022/06/27 16:44:42;;;;;;;;;;;;;;;23.31;47.63;101884.44;4891640;29;19934;-78
2022/06/27 16:47:09;;;;;;;;;;;;;;;23.29;47.65;101878.34;4891400;29;19947;-79
2022/06/27 16:49:35;;;;;;;;;;;;;;;23.27;47.82;101880.97;4890158;29;20354;-79
2022/06/27 16:52:01;;;;;;;;;;;;;;;23.25;47.84;101874.88;4872829;29;19918;-78
2022/06/27 16:54:27;;;;;;;;;;;;;;;23.23;47.68;101874.03;4872953;29;19990;-78
2022/06/27 16:56:52;;;;;;;;;;;;;;;23.23;47.35;101865.31;4874182;29;20355;-79
2022/06/27 16:59:18;;;;;;;;;;;;;;;23.23;47.31;101865.31;4874220;29;19916;-79
2022/06/27 17:01:44;;;;;;;;;;;;;;;23.23;47.05;101862.69;4873447;29;20002;-79
2022/06/27 17:04:09;;;;;;;;;;;;;;;23.21;46.84;101862.69;4889534;29;19947;-79
2022/06/27 17:06:34;;;;;;;;;;;;;;;23.19;46.71;101860.13;4873555;29;19912;-79
2022/06/27 17:09:01;;;;;;;;;;;;;;;23.17;46.48;101867.16;4873858;29;20283;-79
2022/06/27 17:11:27;;;;;;;;;;;;;;;23.16;46.25;101886.41;4891227;29;19919;-79
2022/06/27 17:13:54;;;;;;;;;;;;;;;23.16;46.54;101889.03;4891120;29;19896;-80